Time;durP1;ratioP1;P1;durP2;ratioP2;P2;SDS_P1;SDS_P2;PMS_P1;PMS_P2;Temp;Humidity;BMP_temperature;BMP_pressure;BME280_temperature;BME280_humidity;BME280_pressure;Samples;Min_cycle;Max_cycle;Signal;HPM_P1;HPM_P2
2022/06/07 04:06:24;;;;;;;;;21.33;18.67;;;;;;;;6462975;46;9092;-61
2022/06/07 04:12:29;;;;;;;;;21.33;19.33;;;;;;;;6492277;46;8916;-60
2022/06/07 08:44:58;;;;;;;;;12.75;12.50;;;;;;;;6312716;39;9999721;-60
2022/06/07 08:51:22;;;;;;;;;9.00;9.00;;;;;;;;6491906;39;8985;-61
2022/06/07 08:57:27;;;;;;;;;7.00;7.00;;;;;;;;6492755;39;8893;-60
2022/06/07 09:04:05;;;;;;;;;4.00;4.00;;;;;;;;6491045;31;9657;-61
2022/06/07 09:16:43;;;;;;;;;7.75;7.75;;;;;;;;6490193;46;8919;-60
2022/06/07 09:22:55;;;;;;;;;2.00;1.00;;;;;;;;6488876;39;8897;-61
2022/06/07 09:29:15;;;;;;;;;5.75;5.75;;;;;;;;6488060;46;9080;-60
2022/06/07 09:35:36;;;;;;;;;6.00;6.00;;;;;;;;6488643;39;9035;-60
2022/06/07 09:41:54;;;;;;;;;8.00;8.00;;;;;;;;6488972;39;9011;-61
2022/06/07 09:48:18;;;;;;;;;9.75;8.50;;;;;;;;6488442;39;9057;-60
2022/06/07 09:54:22;;;;;;;;;9.50;9.50;;;;;;;;6483511;31;10023;-60
2022/06/07 10:00:57;;;;;;;;;6.25;6.25;;;;;;;;6487542;47;8916;-61
2022/06/07 10:07:08;;;;;;;;;8.00;7.00;;;;;;;;6487709;47;9012;-61
2022/06/07 10:13:31;;;;;;;;;7.50;6.25;;;;;;;;6488223;39;9066;-62
2022/06/07 10:20:03;;;;;;;;;11.00;11.00;;;;;;;;6489136;39;8863;-61
2022/06/07 10:26:31;;;;;;;;;7.50;7.50;;;;;;;;6488191;47;8948;-62
2022/06/07 10:32:41;;;;;;;;;8.25;7.25;;;;;;;;6485780;47;10301;-60
2022/06/07 10:39:06;;;;;;;;;5.75;5.75;;;;;;;;6488089;39;9361;-61
2022/06/07 10:45:19;;;;;;;;;6.25;5.25;;;;;;;;6490487;39;9092;-61
2022/06/07 10:57:56;;;;;;;;;14.50;13.50;;;;;;;;6489786;39;8990;-62
2022/06/07 11:10:49;;;;;;;;;11.00;9.50;;;;;;;;6489835;39;8944;-62
2022/06/07 11:17:00;;;;;;;;;14.00;12.75;;;;;;;;6491115;39;9689;-61
2022/06/07 11:23:34;;;;;;;;;10.75;9.75;;;;;;;;6489796;39;8920;-61
2022/06/07 11:29:36;;;;;;;;;10.25;10.25;;;;;;;;6489488;46;9057;-61
2022/06/07 11:35:51;;;;;;;;;10.75;10.00;;;;;;;;6490349;39;8920;-62
2022/06/07 11:41:57;;;;;;;;;9.50;9.50;;;;;;;;6491188;39;9682;-60
2022/06/07 11:48:10;;;;;;;;;9.00;9.00;;;;;;;;6489421;31;9557;-61
2022/06/07 11:54:15;;;;;;;;;8.75;7.25;;;;;;;;6488957;31;9081;-61
2022/06/07 12:00:18;;;;;;;;;10.50;8.25;;;;;;;;6535075;36;8928;-60
2022/06/07 12:06:22;;;;;;;;;11.50;10.25;;;;;;;;6488773;31;8964;-60
2022/06/07 12:12:38;;;;;;;;;16.75;16.00;;;;;;;;6489960;39;8941;-59
2022/06/07 12:18:40;;;;;;;;;9.75;9.75;;;;;;;;6489524;31;8939;-61
2022/06/07 12:24:48;;;;;;;;;12.25;11.75;;;;;;;;6489761;36;8968;-61
2022/06/07 12:30:50;;;;;;;;;12.50;11.50;;;;;;;;6490110;39;8942;-61
2022/06/07 12:37:03;;;;;;;;;8.50;8.50;;;;;;;;6488750;46;9015;-61
2022/06/07 12:43:19;;;;;;;;;8.00;7.25;;;;;;;;6489906;46;9053;-59
2022/06/07 12:49:45;;;;;;;;;9.75;9.00;;;;;;;;6488468;46;8944;-59
2022/06/07 12:55:54;;;;;;;;;7.25;6.50;;;;;;;;6489436;31;8937;-61
2022/06/07 13:02:14;;;;;;;;;9.50;9.50;;;;;;;;6488560;39;8920;-62
2022/06/07 13:08:22;;;;;;;;;8.50;8.00;;;;;;;;6490265;39;8894;-61
2022/06/07 13:14:28;;;;;;;;;10.00;10.00;;;;;;;;6487839;31;9055;-60
2022/06/07 13:20:45;;;;;;;;;11.50;11.50;;;;;;;;6490901;39;8999;-60
2022/06/07 13:27:00;;;;;;;;;12.25;11.50;;;;;;;;6491525;31;9144;-60
2022/06/07 13:33:09;;;;;;;;;16.25;14.25;;;;;;;;6490788;39;8953;-61
2022/06/07 13:39:25;;;;;;;;;14.50;14.50;;;;;;;;6492980;39;9085;-60
2022/06/07 13:45:31;;;;;;;;;9.25;9.25;;;;;;;;6488884;47;8922;-62
2022/06/07 13:57:56;;;;;;;;;7.00;7.00;;;;;;;;6492098;39;9150;-61
2022/06/07 14:04:17;;;;;;;;;7.75;7.25;;;;;;;;6492695;31;8877;-61
2022/06/07 14:10:19;;;;;;;;;9.00;8.25;;;;;;;;6492748;39;8888;-61
2022/06/07 14:16:31;;;;;;;;;7.00;7.00;;;;;;;;6493356;46;8853;-62
2022/06/07 14:22:34;;;;;;;;;6.50;6.50;;;;;;;;6494816;31;8981;-62
2022/06/07 14:28:36;;;;;;;;;14.75;12.00;;;;;;;;6494109;39;8916;-62
2022/06/07 14:34:43;;;;;;;;;7.75;7.75;;;;;;;;6493623;39;9488;-61
2022/06/07 14:40:48;;;;;;;;;8.50;7.50;;;;;;;;6494282;31;8933;-62
2022/06/07 14:46:50;;;;;;;;;6.50;5.75;;;;;;;;6494685;31;8909;-62
2022/06/07 14:52:52;;;;;;;;;8.00;8.00;;;;;;;;6494384;36;8812;-61
2022/06/07 14:58:55;;;;;;;;;5.25;5.25;;;;;;;;6494110;39;8925;-61
2022/06/07 15:05:07;;;;;;;;;5.25;5.25;;;;;;;;6493280;46;8993;-61
2022/06/07 15:11:26;;;;;;;;;8.00;8.00;;;;;;;;6494649;31;8941;-62
2022/06/07 15:17:36;;;;;;;;;6.00;6.00;;;;;;;;6493474;39;9069;-63
2022/06/07 15:23:39;;;;;;;;;7.75;7.50;;;;;;;;6492628;39;9548;-61
2022/06/07 15:29:49;;;;;;;;;6.00;6.00;;;;;;;;6492163;36;8885;-61
2022/06/07 15:35:52;;;;;;;;;5.00;5.00;;;;;;;;6492597;39;8854;-62
2022/06/07 15:48:22;;;;;;;;;7.50;7.50;;;;;;;;6491525;46;8932;-63
2022/06/07 15:54:24;;;;;;;;;5.00;4.00;;;;;;;;6491463;46;8937;-62
2022/06/07 16:00:29;;;;;;;;;8.00;6.00;;;;;;;;6492662;39;8933;-61
2022/06/07 16:06:33;;;;;;;;;8.25;8.25;;;;;;;;6492853;39;8866;-62
2022/06/07 16:12:36;;;;;;;;;7.00;6.75;;;;;;;;6491278;39;9047;-62
2022/06/07 16:18:38;;;;;;;;;11.75;10.00;;;;;;;;6492197;31;8889;-62
2022/06/07 16:24:40;;;;;;;;;7.00;7.00;;;;;;;;6491847;39;8858;-62
2022/06/07 16:37:04;;;;;;;;;6.25;6.25;;;;;;;;6491581;39;9463;-62
2022/06/07 16:49:33;;;;;;;;;6.50;6.50;;;;;;;;6491908;39;8866;-61
2022/06/07 16:55:35;;;;;;;;;8.75;8.00;;;;;;;;6491245;39;8960;-61
2022/06/07 17:01:39;;;;;;;;;8.00;7.75;;;;;;;;6491477;39;8973;-61
2022/06/07 17:07:42;;;;;;;;;7.25;6.25;;;;;;;;6491847;39;8849;-62
2022/06/07 17:13:46;;;;;;;;;6.75;6.75;;;;;;;;6491074;39;8953;-62
2022/06/07 17:19:50;;;;;;;;;8.50;8.50;;;;;;;;6491264;39;8882;-61
2022/06/07 17:25:53;;;;;;;;;9.00;9.00;;;;;;;;6491227;31;8875;-62
2022/06/07 17:31:55;;;;;;;;;9.00;9.00;;;;;;;;6491486;39;9115;-61
2022/06/07 17:37:58;;;;;;;;;8.50;8.50;;;;;;;;6492101;31;8859;-61
2022/06/07 17:44:02;;;;;;;;;8.25;8.25;;;;;;;;6492129;39;9841;-61
2022/06/07 17:50:08;;;;;;;;;11.00;11.00;;;;;;;;6493137;46;8879;-61
2022/06/07 17:56:10;;;;;;;;;11.50;11.50;;;;;;;;6492173;46;8886;-61
2022/06/07 18:02:15;;;;;;;;;13.00;13.00;;;;;;;;6492758;39;8976;-61
2022/06/07 18:08:19;;;;;;;;;13.00;13.00;;;;;;;;6491943;46;8901;-62
2022/06/07 18:14:22;;;;;;;;;15.75;12.00;;;;;;;;6493047;39;8889;-61
2022/06/07 18:20:28;;;;;;;;;13.50;11.25;;;;;;;;6493208;39;8969;-61
2022/06/07 18:26:40;;;;;;;;;12.00;12.00;;;;;;;;6492651;39;8898;-61
2022/06/07 18:32:44;;;;;;;;;11.67;9.00;;;;;;;;6492837;31;8906;-60
2022/06/07 18:38:48;;;;;;;;;12.25;12.00;;;;;;;;6492162;46;8870;-65
2022/06/07 18:44:50;;;;;;;;;14.00;10.67;;;;;;;;6493135;31;8946;-61
2022/06/07 18:51:00;;;;;;;;;16.50;14.75;;;;;;;;6492668;39;8968;-60
2022/06/07 18:57:03;;;;;;;;;15.33;15.33;;;;;;;;6492378;39;8902;-62
2022/06/07 19:03:06;;;;;;;;;16.00;16.00;;;;;;;;6492590;31;8874;-61
2022/06/07 19:09:08;;;;;;;;;11.67;11.33;;;;;;;;6491688;39;8882;-61
2022/06/07 19:15:16;;;;;;;;;13.67;11.00;;;;;;;;6492349;39;9064;-61
2022/06/07 19:21:18;;;;;;;;;13.67;13.67;;;;;;;;6491982;46;8978;-60
2022/06/07 19:27:21;;;;;;;;;17.00;16.33;;;;;;;;6492615;39;8913;-61
2022/06/07 19:33:25;;;;;;;;;19.00;16.33;;;;;;;;6492672;39;9546;-61
2022/06/07 19:39:29;;;;;;;;;13.67;12.33;;;;;;;;6492712;36;8836;-61
2022/06/07 19:45:33;;;;;;;;;15.67;12.33;;;;;;;;6492204;46;8921;-61
2022/06/07 19:51:36;;;;;;;;;19.67;19.00;;;;;;;;6491684;46;8921;-61
2022/06/07 19:57:39;;;;;;;;;16.67;16.00;;;;;;;;6491917;46;8894;-61
2022/06/07 20:03:41;;;;;;;;;13.67;12.67;;;;;;;;6492241;39;8866;-61
2022/06/07 20:09:45;;;;;;;;;17.00;17.00;;;;;;;;6490716;39;9471;-61
2022/06/07 20:15:48;;;;;;;;;14.33;13.67;;;;;;;;6491492;36;8861;-61
2022/06/07 20:21:50;;;;;;;;;17.33;16.33;;;;;;;;6491398;39;8889;-61
2022/06/07 20:27:52;;;;;;;;;15.00;12.00;;;;;;;;6491412;31;8988;-60
2022/06/07 20:33:54;;;;;;;;;17.67;15.00;;;;;;;;6492175;36;8917;-62
2022/06/07 20:39:57;;;;;;;;;12.33;12.33;;;;;;;;6491415;31;9499;-61
2022/06/07 20:46:23;;;;;;;;;16.67;16.33;;;;;;;;6491283;39;8911;-61
2022/06/07 20:52:25;;;;;;;;;17.00;14.67;;;;;;;;6491413;31;8937;-62
2022/06/07 20:58:29;;;;;;;;;21.00;16.67;;;;;;;;6491506;39;9599;-60
2022/06/07 21:04:32;;;;;;;;;22.00;17.00;;;;;;;;6491080;46;8848;-62
2022/06/07 21:10:37;;;;;;;;;17.67;16.67;;;;;;;;6490806;46;8956;-60
2022/06/07 21:16:39;;;;;;;;;16.33;15.33;;;;;;;;6491930;31;8865;-61
2022/06/07 21:22:41;;;;;;;;;17.00;17.00;;;;;;;;6491862;39;9583;-60
2022/06/07 21:28:45;;;;;;;;;16.33;16.00;;;;;;;;6490318;46;8999;-61
2022/06/07 21:34:48;;;;;;;;;16.00;16.00;;;;;;;;6490946;31;8904;-60
2022/06/07 21:40:52;;;;;;;;;14.00;14.00;;;;;;;;6491698;31;8841;-60
2022/06/07 21:46:55;;;;;;;;;14.33;14.33;;;;;;;;6491407;31;8966;-61
2022/06/07 21:52:57;;;;;;;;;12.67;12.67;;;;;;;;6490894;39;9585;-60
2022/06/07 21:58:59;;;;;;;;;17.33;17.00;;;;;;;;6490677;39;8897;-61
2022/06/07 22:05:03;;;;;;;;;18.67;16.00;;;;;;;;6490766;47;8942;-61
2022/06/07 22:11:09;;;;;;;;;20.00;18.67;;;;;;;;6491055;39;9507;-61
2022/06/07 22:17:13;;;;;;;;;17.67;16.33;;;;;;;;6491082;31;8870;-60
2022/06/07 22:23:16;;;;;;;;;15.00;12.67;;;;;;;;6489786;39;8854;-62
2022/06/07 22:29:37;;;;;;;;;16.33;16.33;;;;;;;;6489811;47;8929;-61
2022/06/07 22:35:41;;;;;;;;;13.00;13.00;;;;;;;;6491732;46;8910;-61
2022/06/07 22:41:45;;;;;;;;;15.67;15.67;;;;;;;;6492236;39;8914;-61
2022/06/07 22:47:48;;;;;;;;;14.67;14.67;;;;;;;;6492227;46;8909;-61
2022/06/07 22:53:59;;;;;;;;;14.00;13.67;;;;;;;;6491038;39;8916;-61
2022/06/07 23:00:10;;;;;;;;;15.33;14.00;;;;;;;;6492504;31;8874;-61
2022/06/07 23:06:18;;;;;;;;;12.00;12.00;;;;;;;;6491745;46;8857;-61
2022/06/07 23:12:21;;;;;;;;;15.00;15.00;;;;;;;;6492733;31;8916;-60
2022/06/07 23:18:23;;;;;;;;;15.00;12.67;;;;;;;;6493069;39;9668;-61
2022/06/07 23:24:25;;;;;;;;;16.33;15.00;;;;;;;;6491528;39;10111;-61
2022/06/07 23:30:28;;;;;;;;;18.00;17.67;;;;;;;;6492005;46;9013;-62
2022/06/07 23:36:30;;;;;;;;;18.33;16.33;;;;;;;;6490605;46;8914;-61
2022/06/07 23:42:32;;;;;;;;;15.67;15.00;;;;;;;;6491223;46;8937;-61
2022/06/07 23:48:37;;;;;;;;;17.00;17.00;;;;;;;;6492363;39;8913;-61
2022/06/07 23:54:40;;;;;;;;;18.67;18.67;;;;;;;;6491629;39;8920;-61
